<?xml version="1.0" encoding="UTF-8" standalone="no" ?>
<gpx xmlns="http://www.topografix.com/GPX/1/1" xmlns:xsi="http://www.w3.org/2001/XMLSchema-instance" xsi:schemaLocation="http://www.topografix.com/GPX/1/1 http://www.topografix.com/GPX/1/1/gpx.xsd" version="1.1" creator="VisuGPX - https://www.visugpx.com">
  <metadata>
    <name>19-08-2018 Chalets de Clapeyto et lacs</name>
    <desc><![CDATA[Chalets de Clapeyto. Antoine (4.5 ans) a marché du 2ème parking (km 0.5) jusqu'au pique-nique (km 3.9). Puis nous sommes montés aux lacs.]]></desc>
  </metadata>
  <trk>
    <name><![CDATA[180819-Chalets-de-Clapeyto]]></name>
    <trkseg>
      <trkpt lat="44.80571" lon="6.70662">
        <ele>1969.88</ele>
        <time>2018-08-19T08:40:38Z</time>
      </trkpt>
      <trkpt lat="44.80589" lon="6.70661">
        <ele>1972.57</ele>
        <time>2018-08-19T08:40:57Z</time>
      </trkpt>
      <trkpt lat="44.80607" lon="6.70667">
        <ele>1975.41</ele>
        <time>2018-08-19T08:41:16Z</time>
      </trkpt>
      <trkpt lat="44.80618" lon="6.70645">
        <ele>1981.28</ele>
        <time>2018-08-19T08:41:57Z</time>
      </trkpt>
      <trkpt lat="44.80619" lon="6.70619">
        <ele>1984.72</ele>
        <time>2018-08-19T08:42:16Z</time>
      </trkpt>
      <trkpt lat="44.80601" lon="6.70613">
        <ele>1987.12</ele>
        <time>2018-08-19T08:42:34Z</time>
      </trkpt>
      <trkpt lat="44.80599" lon="6.70586">
        <ele>1989.93</ele>
        <time>2018-08-19T08:42:55Z</time>
      </trkpt>
      <trkpt lat="44.806" lon="6.70561">
        <ele>1993.11</ele>
        <time>2018-08-19T08:43:18Z</time>
      </trkpt>
      <trkpt lat="44.80602" lon="6.70535">
        <ele>1995.85</ele>
        <time>2018-08-19T08:43:37Z</time>
      </trkpt>
      <trkpt lat="44.80607" lon="6.70508">
        <ele>1999.32</ele>
        <time>2018-08-19T08:44:04Z</time>
      </trkpt>
      <trkpt lat="44.80614" lon="6.70485">
        <ele>2002.27</ele>
        <time>2018-08-19T08:44:26Z</time>
      </trkpt>
      <trkpt lat="44.8062" lon="6.7046">
        <ele>2005.22</ele>
        <time>2018-08-19T08:44:53Z</time>
      </trkpt>
      <trkpt lat="44.80632" lon="6.70441">
        <ele>2009.41</ele>
        <time>2018-08-19T08:45:23Z</time>
      </trkpt>
      <trkpt lat="44.8064" lon="6.70418">
        <ele>2011.89</ele>
        <time>2018-08-19T08:45:42Z</time>
      </trkpt>
      <trkpt lat="44.8064" lon="6.70392">
        <ele>2014.2</ele>
        <time>2018-08-19T08:46:03Z</time>
      </trkpt>
      <trkpt lat="44.80647" lon="6.70366">
        <ele>2018.02</ele>
        <time>2018-08-19T08:46:29Z</time>
      </trkpt>
      <trkpt lat="44.80664" lon="6.70376">
        <ele>2024.52</ele>
        <time>2018-08-19T08:47:19Z</time>
      </trkpt>
      <trkpt lat="44.80667" lon="6.7035">
        <ele>2027.66</ele>
        <time>2018-08-19T08:48:13Z</time>
      </trkpt>
      <trkpt lat="44.8066" lon="6.70325">
        <ele>2029.82</ele>
        <time>2018-08-19T08:48:33Z</time>
      </trkpt>
      <trkpt lat="44.80648" lon="6.70306">
        <ele>2032.04</ele>
        <time>2018-08-19T08:48:49Z</time>
      </trkpt>
      <trkpt lat="44.80634" lon="6.7029">
        <ele>2033.86</ele>
        <time>2018-08-19T08:49:04Z</time>
      </trkpt>
      <trkpt lat="44.80624" lon="6.70267">
        <ele>2036.8</ele>
        <time>2018-08-19T08:49:26Z</time>
      </trkpt>
      <trkpt lat="44.80617" lon="6.70242">
        <ele>2038.8</ele>
        <time>2018-08-19T08:49:44Z</time>
      </trkpt>
      <trkpt lat="44.80601" lon="6.70228">
        <ele>2041.39</ele>
        <time>2018-08-19T08:50:02Z</time>
      </trkpt>
      <trkpt lat="44.80584" lon="6.70218">
        <ele>2043.12</ele>
        <time>2018-08-19T08:50:24Z</time>
      </trkpt>
      <trkpt lat="44.80594" lon="6.70196">
        <ele>2044.83</ele>
        <time>2018-08-19T08:56:01Z</time>
      </trkpt>
      <trkpt lat="44.80594" lon="6.70171">
        <ele>2047.95</ele>
        <time>2018-08-19T08:56:22Z</time>
      </trkpt>
      <trkpt lat="44.80596" lon="6.70146">
        <ele>2049.74</ele>
        <time>2018-08-19T08:56:44Z</time>
      </trkpt>
      <trkpt lat="44.80594" lon="6.7012">
        <ele>2052.07</ele>
        <time>2018-08-19T08:57:19Z</time>
      </trkpt>
      <trkpt lat="44.80593" lon="6.70093">
        <ele>2054.07</ele>
        <time>2018-08-19T08:57:38Z</time>
      </trkpt>
      <trkpt lat="44.8059" lon="6.70067">
        <ele>2055.68</ele>
        <time>2018-08-19T08:57:58Z</time>
      </trkpt>
      <trkpt lat="44.80587" lon="6.7004">
        <ele>2058.47</ele>
        <time>2018-08-19T08:58:31Z</time>
      </trkpt>
      <trkpt lat="44.80589" lon="6.70015">
        <ele>2061.17</ele>
        <time>2018-08-19T08:58:49Z</time>
      </trkpt>
      <trkpt lat="44.80585" lon="6.6999">
        <ele>2063.7</ele>
        <time>2018-08-19T08:59:09Z</time>
      </trkpt>
      <trkpt lat="44.80602" lon="6.69999">
        <ele>2068.02</ele>
        <time>2018-08-19T08:59:45Z</time>
      </trkpt>
      <trkpt lat="44.80614" lon="6.70021">
        <ele>2069.33</ele>
        <time>2018-08-19T09:00:02Z</time>
      </trkpt>
      <trkpt lat="44.80618" lon="6.70045">
        <ele>2070.72</ele>
        <time>2018-08-19T09:00:17Z</time>
      </trkpt>
      <trkpt lat="44.80623" lon="6.70071">
        <ele>2072.33</ele>
        <time>2018-08-19T09:00:34Z</time>
      </trkpt>
      <trkpt lat="44.80625" lon="6.70045">
        <ele>2077.81</ele>
        <time>2018-08-19T09:01:29Z</time>
      </trkpt>
      <trkpt lat="44.80607" lon="6.70038">
        <ele>2080.42</ele>
        <time>2018-08-19T09:04:10Z</time>
      </trkpt>
      <trkpt lat="44.80614" lon="6.70007">
        <ele>2082.6</ele>
        <time>2018-08-19T09:04:32Z</time>
      </trkpt>
      <trkpt lat="44.80626" lon="6.69987">
        <ele>2084.8</ele>
        <time>2018-08-19T09:04:45Z</time>
      </trkpt>
      <trkpt lat="44.80614" lon="6.69967">
        <ele>2087.75</ele>
        <time>2018-08-19T09:05:10Z</time>
      </trkpt>
      <trkpt lat="44.80605" lon="6.69945">
        <ele>2092.39</ele>
        <time>2018-08-19T09:05:41Z</time>
      </trkpt>
      <trkpt lat="44.80602" lon="6.6992">
        <ele>2093.95</ele>
        <time>2018-08-19T09:06:04Z</time>
      </trkpt>
      <trkpt lat="44.80591" lon="6.69899">
        <ele>2099.18</ele>
        <time>2018-08-19T09:06:28Z</time>
      </trkpt>
      <trkpt lat="44.80574" lon="6.6989">
        <ele>2102.11</ele>
        <time>2018-08-19T09:06:49Z</time>
      </trkpt>
      <trkpt lat="44.80559" lon="6.69875">
        <ele>2104.92</ele>
        <time>2018-08-19T09:07:15Z</time>
      </trkpt>
      <trkpt lat="44.80548" lon="6.69854">
        <ele>2108.7</ele>
        <time>2018-08-19T09:07:39Z</time>
      </trkpt>
      <trkpt lat="44.80532" lon="6.69841">
        <ele>2114.33</ele>
        <time>2018-08-19T09:10:45Z</time>
      </trkpt>
      <trkpt lat="44.80515" lon="6.69831">
        <ele>2116.72</ele>
        <time>2018-08-19T09:11:09Z</time>
      </trkpt>
      <trkpt lat="44.80503" lon="6.69811">
        <ele>2119.7</ele>
        <time>2018-08-19T09:11:34Z</time>
      </trkpt>
      <trkpt lat="44.80487" lon="6.69798">
        <ele>2123.65</ele>
        <time>2018-08-19T09:12:06Z</time>
      </trkpt>
      <trkpt lat="44.80472" lon="6.69782">
        <ele>2127.39</ele>
        <time>2018-08-19T09:12:33Z</time>
      </trkpt>
      <trkpt lat="44.80457" lon="6.69769">
        <ele>2130.43</ele>
        <time>2018-08-19T09:12:55Z</time>
      </trkpt>
      <trkpt lat="44.80439" lon="6.69764">
        <ele>2132.09</ele>
        <time>2018-08-19T09:13:14Z</time>
      </trkpt>
      <trkpt lat="44.80421" lon="6.69769">
        <ele>2135.03</ele>
        <time>2018-08-19T09:13:35Z</time>
      </trkpt>
      <trkpt lat="44.80408" lon="6.69751">
        <ele>2136.18</ele>
        <time>2018-08-19T09:13:59Z</time>
      </trkpt>
      <trkpt lat="44.80404" lon="6.69726">
        <ele>2136.41</ele>
        <time>2018-08-19T09:14:19Z</time>
      </trkpt>
      <trkpt lat="44.80401" lon="6.697">
        <ele>2136.62</ele>
        <time>2018-08-19T09:14:36Z</time>
      </trkpt>
      <trkpt lat="44.80397" lon="6.69675">
        <ele>2137.07</ele>
        <time>2018-08-19T09:15:00Z</time>
      </trkpt>
      <trkpt lat="44.80396" lon="6.69649">
        <ele>2135.71</ele>
        <time>2018-08-19T09:15:20Z</time>
      </trkpt>
      <trkpt lat="44.80396" lon="6.69622">
        <ele>2134.77</ele>
        <time>2018-08-19T09:15:40Z</time>
      </trkpt>
      <trkpt lat="44.80394" lon="6.69596">
        <ele>2134.86</ele>
        <time>2018-08-19T09:15:59Z</time>
      </trkpt>
      <trkpt lat="44.80387" lon="6.69571">
        <ele>2135.7</ele>
        <time>2018-08-19T09:17:27Z</time>
      </trkpt>
      <trkpt lat="44.80379" lon="6.69548">
        <ele>2135.73</ele>
        <time>2018-08-19T09:17:46Z</time>
      </trkpt>
      <trkpt lat="44.80361" lon="6.69542">
        <ele>2135.98</ele>
        <time>2018-08-19T09:18:03Z</time>
      </trkpt>
      <trkpt lat="44.80343" lon="6.69536">
        <ele>2135.48</ele>
        <time>2018-08-19T09:18:21Z</time>
      </trkpt>
      <trkpt lat="44.80326" lon="6.69523">
        <ele>2134.57</ele>
        <time>2018-08-19T09:18:35Z</time>
      </trkpt>
      <trkpt lat="44.80309" lon="6.69516">
        <ele>2134.22</ele>
        <time>2018-08-19T09:18:53Z</time>
      </trkpt>
      <trkpt lat="44.80291" lon="6.69508">
        <ele>2134.11</ele>
        <time>2018-08-19T09:19:07Z</time>
      </trkpt>
      <trkpt lat="44.80273" lon="6.69501">
        <ele>2133.13</ele>
        <time>2018-08-19T09:19:19Z</time>
      </trkpt>
      <trkpt lat="44.80256" lon="6.6949">
        <ele>2132.97</ele>
        <time>2018-08-19T09:19:34Z</time>
      </trkpt>
      <trkpt lat="44.80239" lon="6.69479">
        <ele>2134.68</ele>
        <time>2018-08-19T09:21:55Z</time>
      </trkpt>
      <trkpt lat="44.8022" lon="6.69483">
        <ele>2135.45</ele>
        <time>2018-08-19T09:22:13Z</time>
      </trkpt>
      <trkpt lat="44.80203" lon="6.69491">
        <ele>2136.8</ele>
        <time>2018-08-19T09:22:37Z</time>
      </trkpt>
      <trkpt lat="44.80183" lon="6.69492">
        <ele>2139.2</ele>
        <time>2018-08-19T09:23:19Z</time>
      </trkpt>
      <trkpt lat="44.80165" lon="6.69489">
        <ele>2140.18</ele>
        <time>2018-08-19T09:23:29Z</time>
      </trkpt>
      <trkpt lat="44.8015" lon="6.69504">
        <ele>2141.72</ele>
        <time>2018-08-19T09:23:45Z</time>
      </trkpt>
      <trkpt lat="44.80131" lon="6.69503">
        <ele>2146.13</ele>
        <time>2018-08-19T09:26:01Z</time>
      </trkpt>
      <trkpt lat="44.80112" lon="6.69501">
        <ele>2147.93</ele>
        <time>2018-08-19T09:26:17Z</time>
      </trkpt>
      <trkpt lat="44.80098" lon="6.69484">
        <ele>2150.46</ele>
        <time>2018-08-19T09:26:34Z</time>
      </trkpt>
      <trkpt lat="44.80087" lon="6.69464">
        <ele>2153</ele>
        <time>2018-08-19T09:27:00Z</time>
      </trkpt>
      <trkpt lat="44.80076" lon="6.69444">
        <ele>2155.24</ele>
        <time>2018-08-19T09:27:18Z</time>
      </trkpt>
      <trkpt lat="44.80058" lon="6.69451">
        <ele>2155.49</ele>
        <time>2018-08-19T09:27:58Z</time>
      </trkpt>
      <trkpt lat="44.80039" lon="6.69447">
        <ele>2159.26</ele>
        <time>2018-08-19T09:28:19Z</time>
      </trkpt>
      <trkpt lat="44.8002" lon="6.69443">
        <ele>2164.45</ele>
        <time>2018-08-19T09:29:20Z</time>
      </trkpt>
      <trkpt lat="44.80036" lon="6.69431">
        <ele>2171.93</ele>
        <time>2018-08-19T09:30:24Z</time>
      </trkpt>
      <trkpt lat="44.80027" lon="6.69406">
        <ele>2174.35</ele>
        <time>2018-08-19T09:30:52Z</time>
      </trkpt>
      <trkpt lat="44.80016" lon="6.69385">
        <ele>2176.42</ele>
        <time>2018-08-19T09:31:23Z</time>
      </trkpt>
      <trkpt lat="44.80005" lon="6.69363">
        <ele>2179.31</ele>
        <time>2018-08-19T09:31:47Z</time>
      </trkpt>
      <trkpt lat="44.79994" lon="6.69342">
        <ele>2182.64</ele>
        <time>2018-08-19T09:32:18Z</time>
      </trkpt>
      <trkpt lat="44.79982" lon="6.69323">
        <ele>2186.09</ele>
        <time>2018-08-19T09:32:43Z</time>
      </trkpt>
      <trkpt lat="44.7997" lon="6.69303">
        <ele>2189.41</ele>
        <time>2018-08-19T09:33:13Z</time>
      </trkpt>
      <trkpt lat="44.79953" lon="6.69296">
        <ele>2192.55</ele>
        <time>2018-08-19T09:35:07Z</time>
      </trkpt>
      <trkpt lat="44.79968" lon="6.69277">
        <ele>2196.25</ele>
        <time>2018-08-19T09:35:34Z</time>
      </trkpt>
      <trkpt lat="44.79967" lon="6.69252">
        <ele>2198.27</ele>
        <time>2018-08-19T09:35:55Z</time>
      </trkpt>
      <trkpt lat="44.79957" lon="6.6923">
        <ele>2201.79</ele>
        <time>2018-08-19T09:36:19Z</time>
      </trkpt>
      <trkpt lat="44.7995" lon="6.69206">
        <ele>2205.62</ele>
        <time>2018-08-19T09:36:45Z</time>
      </trkpt>
      <trkpt lat="44.79936" lon="6.69189">
        <ele>2210.57</ele>
        <time>2018-08-19T09:37:16Z</time>
      </trkpt>
      <trkpt lat="44.79924" lon="6.6917">
        <ele>2214.28</ele>
        <time>2018-08-19T09:37:49Z</time>
      </trkpt>
      <trkpt lat="44.7991" lon="6.69153">
        <ele>2216.2</ele>
        <time>2018-08-19T09:38:10Z</time>
      </trkpt>
      <trkpt lat="44.79895" lon="6.69138">
        <ele>2216.99</ele>
        <time>2018-08-19T09:38:27Z</time>
      </trkpt>
      <trkpt lat="44.79881" lon="6.69119">
        <ele>2217.07</ele>
        <time>2018-08-19T09:38:49Z</time>
      </trkpt>
      <trkpt lat="44.79865" lon="6.69105">
        <ele>2217.11</ele>
        <time>2018-08-19T09:39:08Z</time>
      </trkpt>
      <trkpt lat="44.7985" lon="6.69089">
        <ele>2217.74</ele>
        <time>2018-08-19T09:39:24Z</time>
      </trkpt>
      <trkpt lat="44.79836" lon="6.69073">
        <ele>2216.65</ele>
        <time>2018-08-19T09:39:42Z</time>
      </trkpt>
      <trkpt lat="44.79821" lon="6.69056">
        <ele>2216.64</ele>
        <time>2018-08-19T09:40:01Z</time>
      </trkpt>
      <trkpt lat="44.79806" lon="6.6904">
        <ele>2216.52</ele>
        <time>2018-08-19T09:40:17Z</time>
      </trkpt>
      <trkpt lat="44.79793" lon="6.69021">
        <ele>2216.9</ele>
        <time>2018-08-19T09:40:42Z</time>
      </trkpt>
      <trkpt lat="44.79777" lon="6.69006">
        <ele>2218.24</ele>
        <time>2018-08-19T09:41:09Z</time>
      </trkpt>
      <trkpt lat="44.79757" lon="6.68995">
        <ele>2219.28</ele>
        <time>2018-08-19T09:41:29Z</time>
      </trkpt>
      <trkpt lat="44.79739" lon="6.69001">
        <ele>2220.93</ele>
        <time>2018-08-19T09:41:55Z</time>
      </trkpt>
      <trkpt lat="44.79722" lon="6.68993">
        <ele>2221.42</ele>
        <time>2018-08-19T09:42:18Z</time>
      </trkpt>
      <trkpt lat="44.79706" lon="6.68979">
        <ele>2222.8</ele>
        <time>2018-08-19T09:42:36Z</time>
      </trkpt>
      <trkpt lat="44.79689" lon="6.68972">
        <ele>2224.64</ele>
        <time>2018-08-19T09:42:55Z</time>
      </trkpt>
      <trkpt lat="44.79673" lon="6.68959">
        <ele>2226.06</ele>
        <time>2018-08-19T09:43:19Z</time>
      </trkpt>
      <trkpt lat="44.79655" lon="6.68959">
        <ele>2228.21</ele>
        <time>2018-08-19T09:47:17Z</time>
      </trkpt>
      <trkpt lat="44.79639" lon="6.68945">
        <ele>2234.89</ele>
        <time>2018-08-19T09:48:09Z</time>
      </trkpt>
      <trkpt lat="44.79627" lon="6.68926">
        <ele>2241.94</ele>
        <time>2018-08-19T09:48:49Z</time>
      </trkpt>
      <trkpt lat="44.79613" lon="6.6891">
        <ele>2245.21</ele>
        <time>2018-08-19T09:49:47Z</time>
      </trkpt>
      <trkpt lat="44.796" lon="6.68891">
        <ele>2251.48</ele>
        <time>2018-08-19T09:51:23Z</time>
      </trkpt>
      <trkpt lat="44.79583" lon="6.68877">
        <ele>2256.55</ele>
        <time>2018-08-19T09:51:52Z</time>
      </trkpt>
      <trkpt lat="44.79565" lon="6.68873">
        <ele>2259.24</ele>
        <time>2018-08-19T09:52:18Z</time>
      </trkpt>
      <trkpt lat="44.79549" lon="6.68861">
        <ele>2265.12</ele>
        <time>2018-08-19T09:52:46Z</time>
      </trkpt>
      <trkpt lat="44.79532" lon="6.68847">
        <ele>2268.21</ele>
        <time>2018-08-19T09:54:04Z</time>
      </trkpt>
      <trkpt lat="44.79514" lon="6.6884">
        <ele>2271.7</ele>
        <time>2018-08-19T09:55:06Z</time>
      </trkpt>
      <trkpt lat="44.79497" lon="6.6883">
        <ele>2274.48</ele>
        <time>2018-08-19T09:55:27Z</time>
      </trkpt>
      <trkpt lat="44.79481" lon="6.68818">
        <ele>2280.37</ele>
        <time>2018-08-19T09:56:00Z</time>
      </trkpt>
      <trkpt lat="44.79463" lon="6.68812">
        <ele>2284.69</ele>
        <time>2018-08-19T09:57:03Z</time>
      </trkpt>
      <trkpt lat="44.79447" lon="6.68802">
        <ele>2286.56</ele>
        <time>2018-08-19T09:57:18Z</time>
      </trkpt>
      <trkpt lat="44.79445" lon="6.68776">
        <ele>2295.81</ele>
        <time>2018-08-19T09:58:42Z</time>
      </trkpt>
      <trkpt lat="44.79441" lon="6.68751">
        <ele>2298.96</ele>
        <time>2018-08-19T09:58:58Z</time>
      </trkpt>
      <trkpt lat="44.79433" lon="6.68727">
        <ele>2304.15</ele>
        <time>2018-08-19T09:59:33Z</time>
      </trkpt>
      <trkpt lat="44.79419" lon="6.68708">
        <ele>2308.92</ele>
        <time>2018-08-19T10:00:04Z</time>
      </trkpt>
      <trkpt lat="44.79408" lon="6.68689">
        <ele>2310.45</ele>
        <time>2018-08-19T10:00:20Z</time>
      </trkpt>
      <trkpt lat="44.79403" lon="6.68662">
        <ele>2308.88</ele>
        <time>2018-08-19T10:03:05Z</time>
      </trkpt>
      <trkpt lat="44.79393" lon="6.68638">
        <ele>2308.89</ele>
        <time>2018-08-19T10:03:19Z</time>
      </trkpt>
      <trkpt lat="44.79377" lon="6.68624">
        <ele>2310.1</ele>
        <time>2018-08-19T10:03:44Z</time>
      </trkpt>
      <trkpt lat="44.79362" lon="6.68611">
        <ele>2312.16</ele>
        <time>2018-08-19T10:04:04Z</time>
      </trkpt>
      <trkpt lat="44.79352" lon="6.68589">
        <ele>2313.69</ele>
        <time>2018-08-19T10:04:22Z</time>
      </trkpt>
      <trkpt lat="44.79355" lon="6.68563">
        <ele>2316.99</ele>
        <time>2018-08-19T10:09:47Z</time>
      </trkpt>
      <trkpt lat="44.7934" lon="6.68547">
        <ele>2315.68</ele>
        <time>2018-08-19T10:10:42Z</time>
      </trkpt>
      <trkpt lat="44.79327" lon="6.68527">
        <ele>2314.1</ele>
        <time>2018-08-19T10:10:56Z</time>
      </trkpt>
      <trkpt lat="44.79325" lon="6.685">
        <ele>2316.15</ele>
        <time>2018-08-19T10:13:20Z</time>
      </trkpt>
      <trkpt lat="44.7932" lon="6.68475">
        <ele>2318.26</ele>
        <time>2018-08-19T10:13:38Z</time>
      </trkpt>
      <trkpt lat="44.79316" lon="6.6845">
        <ele>2322.48</ele>
        <time>2018-08-19T10:14:03Z</time>
      </trkpt>
      <trkpt lat="44.79317" lon="6.68424">
        <ele>2325.83</ele>
        <time>2018-08-19T10:14:26Z</time>
      </trkpt>
      <trkpt lat="44.79317" lon="6.68399">
        <ele>2329.03</ele>
        <time>2018-08-19T10:14:49Z</time>
      </trkpt>
      <trkpt lat="44.79321" lon="6.68373">
        <ele>2332.15</ele>
        <time>2018-08-19T10:15:12Z</time>
      </trkpt>
      <trkpt lat="44.79315" lon="6.68349">
        <ele>2334.76</ele>
        <time>2018-08-19T10:15:30Z</time>
      </trkpt>
      <trkpt lat="44.79312" lon="6.68324">
        <ele>2339.98</ele>
        <time>2018-08-19T10:16:00Z</time>
      </trkpt>
      <trkpt lat="44.79302" lon="6.68301">
        <ele>2344.53</ele>
        <time>2018-08-19T10:16:24Z</time>
      </trkpt>
      <trkpt lat="44.79299" lon="6.68275">
        <ele>2348.45</ele>
        <time>2018-08-19T10:16:53Z</time>
      </trkpt>
      <trkpt lat="44.793" lon="6.6825">
        <ele>2351.62</ele>
        <time>2018-08-19T10:18:10Z</time>
      </trkpt>
      <trkpt lat="44.79301" lon="6.68223">
        <ele>2355.47</ele>
        <time>2018-08-19T10:18:36Z</time>
      </trkpt>
      <trkpt lat="44.79295" lon="6.68198">
        <ele>2358.31</ele>
        <time>2018-08-19T10:18:59Z</time>
      </trkpt>
      <trkpt lat="44.79287" lon="6.68175">
        <ele>2360.72</ele>
        <time>2018-08-19T10:19:16Z</time>
      </trkpt>
      <trkpt lat="44.79281" lon="6.68149">
        <ele>2365</ele>
        <time>2018-08-19T10:19:37Z</time>
      </trkpt>
      <trkpt lat="44.79279" lon="6.68123">
        <ele>2366.54</ele>
        <time>2018-08-19T10:19:57Z</time>
      </trkpt>
      <trkpt lat="44.7927" lon="6.68097">
        <ele>2366.2</ele>
        <time>2018-08-19T10:20:10Z</time>
      </trkpt>
      <trkpt lat="44.79261" lon="6.68072">
        <ele>2366.88</ele>
        <time>2018-08-19T10:20:36Z</time>
      </trkpt>
      <trkpt lat="44.7925" lon="6.68051">
        <ele>2366.79</ele>
        <time>2018-08-19T10:21:25Z</time>
      </trkpt>
      <trkpt lat="44.79242" lon="6.68028">
        <ele>2367.14</ele>
        <time>2018-08-19T10:22:16Z</time>
      </trkpt>
      <trkpt lat="44.79232" lon="6.68005">
        <ele>2368.22</ele>
        <time>2018-08-19T10:22:33Z</time>
      </trkpt>
      <trkpt lat="44.79224" lon="6.67981">
        <ele>2368.78</ele>
        <time>2018-08-19T10:22:47Z</time>
      </trkpt>
      <trkpt lat="44.79219" lon="6.67954">
        <ele>2371.21</ele>
        <time>2018-08-19T10:23:05Z</time>
      </trkpt>
      <trkpt lat="44.79211" lon="6.6793">
        <ele>2372.12</ele>
        <time>2018-08-19T10:23:22Z</time>
      </trkpt>
      <trkpt lat="44.79209" lon="6.67903">
        <ele>2374.51</ele>
        <time>2018-08-19T10:23:48Z</time>
      </trkpt>
      <trkpt lat="44.79203" lon="6.67878">
        <ele>2374.79</ele>
        <time>2018-08-19T10:24:03Z</time>
      </trkpt>
      <trkpt lat="44.79206" lon="6.67852">
        <ele>2375.07</ele>
        <time>2018-08-19T10:24:21Z</time>
      </trkpt>
      <trkpt lat="44.79203" lon="6.67825">
        <ele>2375.61</ele>
        <time>2018-08-19T10:24:35Z</time>
      </trkpt>
      <trkpt lat="44.792" lon="6.67799">
        <ele>2376.17</ele>
        <time>2018-08-19T10:24:44Z</time>
      </trkpt>
      <trkpt lat="44.79198" lon="6.67774">
        <ele>2376.59</ele>
        <time>2018-08-19T10:25:00Z</time>
      </trkpt>
      <trkpt lat="44.79198" lon="6.67747">
        <ele>2378.14</ele>
        <time>2018-08-19T10:25:18Z</time>
      </trkpt>
      <trkpt lat="44.79189" lon="6.67724">
        <ele>2380.73</ele>
        <time>2018-08-19T10:25:40Z</time>
      </trkpt>
      <trkpt lat="44.79177" lon="6.67702">
        <ele>2382.43</ele>
        <time>2018-08-19T10:25:57Z</time>
      </trkpt>
      <trkpt lat="44.79159" lon="6.67697">
        <ele>2382.36</ele>
        <time>2018-08-19T10:30:27Z</time>
      </trkpt>
      <trkpt lat="44.79141" lon="6.67686">
        <ele>2380.27</ele>
        <time>2018-08-19T10:31:27Z</time>
      </trkpt>
      <trkpt lat="44.79124" lon="6.6768">
        <ele>2378.16</ele>
        <time>2018-08-19T10:31:47Z</time>
      </trkpt>
      <trkpt lat="44.79105" lon="6.67677">
        <ele>2371.73</ele>
        <time>2018-08-19T10:32:19Z</time>
      </trkpt>
      <trkpt lat="44.7909" lon="6.67663">
        <ele>2366.8</ele>
        <time>2018-08-19T10:32:46Z</time>
      </trkpt>
      <trkpt lat="44.79073" lon="6.6767">
        <ele>2360.29</ele>
        <time>2018-08-19T10:33:54Z</time>
      </trkpt>
      <trkpt lat="44.79059" lon="6.67688">
        <ele>2354.44</ele>
        <time>2018-08-19T10:34:18Z</time>
      </trkpt>
      <trkpt lat="44.79045" lon="6.67705">
        <ele>2352.02</ele>
        <time>2018-08-19T10:34:32Z</time>
      </trkpt>
      <trkpt lat="44.79032" lon="6.67724">
        <ele>2349</ele>
        <time>2018-08-19T10:34:49Z</time>
      </trkpt>
      <trkpt lat="44.79015" lon="6.67734">
        <ele>2348.23</ele>
        <time>2018-08-19T10:35:08Z</time>
      </trkpt>
      <trkpt lat="44.78997" lon="6.67741">
        <ele>2346.97</ele>
        <time>2018-08-19T10:35:53Z</time>
      </trkpt>
      <trkpt lat="44.79007" lon="6.6772">
        <ele>2347.6</ele>
        <time>2018-08-19T10:36:47Z</time>
      </trkpt>
      <trkpt lat="44.79015" lon="6.67744">
        <ele>2347.79</ele>
        <time>2018-08-19T10:38:35Z</time>
      </trkpt>
      <trkpt lat="44.7902" lon="6.67768">
        <ele>2347.07</ele>
        <time>2018-08-19T10:38:50Z</time>
      </trkpt>
      <trkpt lat="44.79033" lon="6.67748">
        <ele>2343.1</ele>
        <time>2018-08-19T11:48:57Z</time>
      </trkpt>
      <trkpt lat="44.79033" lon="6.67722">
        <ele>2345.43</ele>
        <time>2018-08-19T11:49:15Z</time>
      </trkpt>
      <trkpt lat="44.7903" lon="6.67697">
        <ele>2346.03</ele>
        <time>2018-08-19T11:49:28Z</time>
      </trkpt>
      <trkpt lat="44.79029" lon="6.67672">
        <ele>2349.92</ele>
        <time>2018-08-19T11:49:54Z</time>
      </trkpt>
      <trkpt lat="44.79025" lon="6.67647">
        <ele>2354.47</ele>
        <time>2018-08-19T11:50:30Z</time>
      </trkpt>
      <trkpt lat="44.79022" lon="6.67622">
        <ele>2358.41</ele>
        <time>2018-08-19T11:50:57Z</time>
      </trkpt>
      <trkpt lat="44.79008" lon="6.67605">
        <ele>2361.88</ele>
        <time>2018-08-19T11:52:39Z</time>
      </trkpt>
      <trkpt lat="44.79008" lon="6.6758">
        <ele>2363.47</ele>
        <time>2018-08-19T11:52:56Z</time>
      </trkpt>
      <trkpt lat="44.78992" lon="6.67563">
        <ele>2367.24</ele>
        <time>2018-08-19T11:53:18Z</time>
      </trkpt>
      <trkpt lat="44.7899" lon="6.67537">
        <ele>2371.02</ele>
        <time>2018-08-19T11:53:36Z</time>
      </trkpt>
      <trkpt lat="44.78996" lon="6.6751">
        <ele>2375.35</ele>
        <time>2018-08-19T11:54:03Z</time>
      </trkpt>
      <trkpt lat="44.78996" lon="6.67485">
        <ele>2380.37</ele>
        <time>2018-08-19T11:54:37Z</time>
      </trkpt>
      <trkpt lat="44.78999" lon="6.67459">
        <ele>2382.86</ele>
        <time>2018-08-19T11:55:21Z</time>
      </trkpt>
      <trkpt lat="44.78994" lon="6.67435">
        <ele>2386.23</ele>
        <time>2018-08-19T11:55:40Z</time>
      </trkpt>
      <trkpt lat="44.78989" lon="6.6741">
        <ele>2390.6</ele>
        <time>2018-08-19T11:56:44Z</time>
      </trkpt>
      <trkpt lat="44.78987" lon="6.67384">
        <ele>2393.45</ele>
        <time>2018-08-19T11:57:00Z</time>
      </trkpt>
      <trkpt lat="44.78992" lon="6.67359">
        <ele>2395.97</ele>
        <time>2018-08-19T11:57:22Z</time>
      </trkpt>
      <trkpt lat="44.78998" lon="6.67335">
        <ele>2399.36</ele>
        <time>2018-08-19T11:57:43Z</time>
      </trkpt>
      <trkpt lat="44.79002" lon="6.6731">
        <ele>2400.53</ele>
        <time>2018-08-19T11:58:03Z</time>
      </trkpt>
      <trkpt lat="44.79012" lon="6.67287">
        <ele>2403.21</ele>
        <time>2018-08-19T11:58:23Z</time>
      </trkpt>
      <trkpt lat="44.79026" lon="6.67272">
        <ele>2406.19</ele>
        <time>2018-08-19T11:58:46Z</time>
      </trkpt>
      <trkpt lat="44.7904" lon="6.67255">
        <ele>2406.46</ele>
        <time>2018-08-19T11:59:03Z</time>
      </trkpt>
      <trkpt lat="44.79053" lon="6.67237">
        <ele>2410.17</ele>
        <time>2018-08-19T11:59:38Z</time>
      </trkpt>
      <trkpt lat="44.79043" lon="6.67217">
        <ele>2417.58</ele>
        <time>2018-08-19T12:01:17Z</time>
      </trkpt>
      <trkpt lat="44.79028" lon="6.67201">
        <ele>2424.61</ele>
        <time>2018-08-19T12:01:54Z</time>
      </trkpt>
      <trkpt lat="44.79015" lon="6.67183">
        <ele>2431.92</ele>
        <time>2018-08-19T12:03:07Z</time>
      </trkpt>
      <trkpt lat="44.79016" lon="6.67157">
        <ele>2438.1</ele>
        <time>2018-08-19T12:03:40Z</time>
      </trkpt>
      <trkpt lat="44.79016" lon="6.67132">
        <ele>2442.42</ele>
        <time>2018-08-19T12:04:09Z</time>
      </trkpt>
      <trkpt lat="44.79002" lon="6.67115">
        <ele>2447.94</ele>
        <time>2018-08-19T12:04:53Z</time>
      </trkpt>
      <trkpt lat="44.78988" lon="6.67098">
        <ele>2452.97</ele>
        <time>2018-08-19T12:05:20Z</time>
      </trkpt>
      <trkpt lat="44.7897" lon="6.67102">
        <ele>2457.85</ele>
        <time>2018-08-19T12:06:05Z</time>
      </trkpt>
      <trkpt lat="44.78951" lon="6.67101">
        <ele>2462.4</ele>
        <time>2018-08-19T12:06:39Z</time>
      </trkpt>
      <trkpt lat="44.78933" lon="6.67102">
        <ele>2464.29</ele>
        <time>2018-08-19T12:08:52Z</time>
      </trkpt>
      <trkpt lat="44.78915" lon="6.67096">
        <ele>2465.27</ele>
        <time>2018-08-19T12:10:37Z</time>
      </trkpt>
      <trkpt lat="44.78898" lon="6.67101">
        <ele>2467.3</ele>
        <time>2018-08-19T12:10:56Z</time>
      </trkpt>
      <trkpt lat="44.78878" lon="6.67096">
        <ele>2470.71</ele>
        <time>2018-08-19T12:11:12Z</time>
      </trkpt>
      <trkpt lat="44.7886" lon="6.6709">
        <ele>2472.19</ele>
        <time>2018-08-19T12:11:32Z</time>
      </trkpt>
      <trkpt lat="44.78843" lon="6.67098">
        <ele>2473.49</ele>
        <time>2018-08-19T12:12:47Z</time>
      </trkpt>
      <trkpt lat="44.78824" lon="6.671">
        <ele>2471.81</ele>
        <time>2018-08-19T12:13:05Z</time>
      </trkpt>
      <trkpt lat="44.78811" lon="6.67119">
        <ele>2472</ele>
        <time>2018-08-19T12:15:33Z</time>
      </trkpt>
      <trkpt lat="44.78797" lon="6.67136">
        <ele>2471.76</ele>
        <time>2018-08-19T12:15:56Z</time>
      </trkpt>
      <trkpt lat="44.78785" lon="6.67156">
        <ele>2472.52</ele>
        <time>2018-08-19T12:16:37Z</time>
      </trkpt>
      <trkpt lat="44.78767" lon="6.6716">
        <ele>2472.73</ele>
        <time>2018-08-19T12:17:11Z</time>
      </trkpt>
      <trkpt lat="44.7875" lon="6.67149">
        <ele>2472.62</ele>
        <time>2018-08-19T12:17:27Z</time>
      </trkpt>
      <trkpt lat="44.78734" lon="6.67135">
        <ele>2473.52</ele>
        <time>2018-08-19T12:17:46Z</time>
      </trkpt>
      <trkpt lat="44.78715" lon="6.67134">
        <ele>2473.8</ele>
        <time>2018-08-19T12:18:04Z</time>
      </trkpt>
      <trkpt lat="44.78709" lon="6.67109">
        <ele>2477.05</ele>
        <time>2018-08-19T12:19:07Z</time>
      </trkpt>
      <trkpt lat="44.78701" lon="6.67086">
        <ele>2483.13</ele>
        <time>2018-08-19T12:19:26Z</time>
      </trkpt>
      <trkpt lat="44.78699" lon="6.6706">
        <ele>2486</ele>
        <time>2018-08-19T12:20:18Z</time>
      </trkpt>
      <trkpt lat="44.78702" lon="6.67035">
        <ele>2483.49</ele>
        <time>2018-08-19T12:20:32Z</time>
      </trkpt>
      <trkpt lat="44.78709" lon="6.67011">
        <ele>2482.68</ele>
        <time>2018-08-19T12:20:58Z</time>
      </trkpt>
      <trkpt lat="44.78727" lon="6.6702">
        <ele>2482.81</ele>
        <time>2018-08-19T12:21:22Z</time>
      </trkpt>
      <trkpt lat="44.78745" lon="6.67022">
        <ele>2484.55</ele>
        <time>2018-08-19T12:23:33Z</time>
      </trkpt>
      <trkpt lat="44.7876" lon="6.67007">
        <ele>2484.74</ele>
        <time>2018-08-19T12:23:50Z</time>
      </trkpt>
      <trkpt lat="44.78776" lon="6.66995">
        <ele>2485.26</ele>
        <time>2018-08-19T12:24:05Z</time>
      </trkpt>
      <trkpt lat="44.78793" lon="6.66984">
        <ele>2485.23</ele>
        <time>2018-08-19T12:24:28Z</time>
      </trkpt>
      <trkpt lat="44.78811" lon="6.66986">
        <ele>2482.89</ele>
        <time>2018-08-19T12:24:45Z</time>
      </trkpt>
      <trkpt lat="44.78829" lon="6.66995">
        <ele>2482.34</ele>
        <time>2018-08-19T12:25:08Z</time>
      </trkpt>
      <trkpt lat="44.78847" lon="6.66997">
        <ele>2482.22</ele>
        <time>2018-08-19T12:25:21Z</time>
      </trkpt>
      <trkpt lat="44.78863" lon="6.67008">
        <ele>2478.95</ele>
        <time>2018-08-19T12:25:35Z</time>
      </trkpt>
      <trkpt lat="44.7888" lon="6.67021">
        <ele>2477.29</ele>
        <time>2018-08-19T12:25:51Z</time>
      </trkpt>
      <trkpt lat="44.78898" lon="6.67026">
        <ele>2475.4</ele>
        <time>2018-08-19T12:26:11Z</time>
      </trkpt>
      <trkpt lat="44.78916" lon="6.67026">
        <ele>2472.01</ele>
        <time>2018-08-19T12:26:28Z</time>
      </trkpt>
      <trkpt lat="44.78935" lon="6.67021">
        <ele>2471.28</ele>
        <time>2018-08-19T12:26:39Z</time>
      </trkpt>
      <trkpt lat="44.78954" lon="6.67021">
        <ele>2469.03</ele>
        <time>2018-08-19T12:29:37Z</time>
      </trkpt>
      <trkpt lat="44.78972" lon="6.67018">
        <ele>2466.04</ele>
        <time>2018-08-19T12:29:52Z</time>
      </trkpt>
      <trkpt lat="44.78991" lon="6.6701">
        <ele>2463.34</ele>
        <time>2018-08-19T12:30:08Z</time>
      </trkpt>
      <trkpt lat="44.7901" lon="6.67007">
        <ele>2459.59</ele>
        <time>2018-08-19T12:30:25Z</time>
      </trkpt>
      <trkpt lat="44.79029" lon="6.67002">
        <ele>2456.6</ele>
        <time>2018-08-19T12:30:42Z</time>
      </trkpt>
      <trkpt lat="44.79044" lon="6.67016">
        <ele>2456.53</ele>
        <time>2018-08-19T12:30:57Z</time>
      </trkpt>
      <trkpt lat="44.79058" lon="6.67035">
        <ele>2457.49</ele>
        <time>2018-08-19T12:31:11Z</time>
      </trkpt>
      <trkpt lat="44.7907" lon="6.67055">
        <ele>2458.47</ele>
        <time>2018-08-19T12:31:26Z</time>
      </trkpt>
      <trkpt lat="44.79088" lon="6.67057">
        <ele>2454.37</ele>
        <time>2018-08-19T12:31:48Z</time>
      </trkpt>
      <trkpt lat="44.79106" lon="6.67064">
        <ele>2448.18</ele>
        <time>2018-08-19T12:32:13Z</time>
      </trkpt>
      <trkpt lat="44.79119" lon="6.67085">
        <ele>2447.06</ele>
        <time>2018-08-19T12:32:26Z</time>
      </trkpt>
      <trkpt lat="44.7913" lon="6.67105">
        <ele>2445.87</ele>
        <time>2018-08-19T12:32:41Z</time>
      </trkpt>
      <trkpt lat="44.79148" lon="6.67111">
        <ele>2443.62</ele>
        <time>2018-08-19T12:32:56Z</time>
      </trkpt>
      <trkpt lat="44.79161" lon="6.67128">
        <ele>2439.17</ele>
        <time>2018-08-19T12:33:16Z</time>
      </trkpt>
      <trkpt lat="44.79163" lon="6.67155">
        <ele>2437.16</ele>
        <time>2018-08-19T12:33:30Z</time>
      </trkpt>
      <trkpt lat="44.79172" lon="6.67177">
        <ele>2431.81</ele>
        <time>2018-08-19T12:33:53Z</time>
      </trkpt>
      <trkpt lat="44.79176" lon="6.67202">
        <ele>2428.28</ele>
        <time>2018-08-19T12:34:18Z</time>
      </trkpt>
      <trkpt lat="44.79177" lon="6.67228">
        <ele>2424.55</ele>
        <time>2018-08-19T12:34:32Z</time>
      </trkpt>
      <trkpt lat="44.79185" lon="6.67252">
        <ele>2420.76</ele>
        <time>2018-08-19T12:34:48Z</time>
      </trkpt>
      <trkpt lat="44.79188" lon="6.67277">
        <ele>2415.73</ele>
        <time>2018-08-19T12:35:08Z</time>
      </trkpt>
      <trkpt lat="44.79184" lon="6.67303">
        <ele>2410.2</ele>
        <time>2018-08-19T12:35:25Z</time>
      </trkpt>
      <trkpt lat="44.79185" lon="6.67329">
        <ele>2405.93</ele>
        <time>2018-08-19T12:35:44Z</time>
      </trkpt>
      <trkpt lat="44.79183" lon="6.67355">
        <ele>2402.57</ele>
        <time>2018-08-19T12:36:22Z</time>
      </trkpt>
      <trkpt lat="44.79181" lon="6.67381">
        <ele>2399.81</ele>
        <time>2018-08-19T12:36:36Z</time>
      </trkpt>
      <trkpt lat="44.79177" lon="6.67408">
        <ele>2397.1</ele>
        <time>2018-08-19T12:36:50Z</time>
      </trkpt>
      <trkpt lat="44.79177" lon="6.67435">
        <ele>2394.81</ele>
        <time>2018-08-19T12:37:08Z</time>
      </trkpt>
      <trkpt lat="44.79175" lon="6.67461">
        <ele>2389.84</ele>
        <time>2018-08-19T12:37:54Z</time>
      </trkpt>
      <trkpt lat="44.79178" lon="6.67487">
        <ele>2387.98</ele>
        <time>2018-08-19T12:38:04Z</time>
      </trkpt>
      <trkpt lat="44.79172" lon="6.67511">
        <ele>2385.14</ele>
        <time>2018-08-19T12:38:18Z</time>
      </trkpt>
      <trkpt lat="44.79174" lon="6.67537">
        <ele>2385.32</ele>
        <time>2018-08-19T12:38:33Z</time>
      </trkpt>
      <trkpt lat="44.79176" lon="6.67563">
        <ele>2386.04</ele>
        <time>2018-08-19T12:38:48Z</time>
      </trkpt>
      <trkpt lat="44.79179" lon="6.67589">
        <ele>2385.67</ele>
        <time>2018-08-19T12:39:01Z</time>
      </trkpt>
      <trkpt lat="44.79181" lon="6.67616">
        <ele>2386.59</ele>
        <time>2018-08-19T12:39:16Z</time>
      </trkpt>
      <trkpt lat="44.79184" lon="6.67642">
        <ele>2387.26</ele>
        <time>2018-08-19T12:39:28Z</time>
      </trkpt>
      <trkpt lat="44.7919" lon="6.67668">
        <ele>2387.44</ele>
        <time>2018-08-19T12:39:44Z</time>
      </trkpt>
      <trkpt lat="44.79198" lon="6.67693">
        <ele>2388.07</ele>
        <time>2018-08-19T12:39:58Z</time>
      </trkpt>
      <trkpt lat="44.79197" lon="6.67719">
        <ele>2387.95</ele>
        <time>2018-08-19T12:40:11Z</time>
      </trkpt>
      <trkpt lat="44.79195" lon="6.67745">
        <ele>2385.58</ele>
        <time>2018-08-19T12:40:30Z</time>
      </trkpt>
      <trkpt lat="44.79198" lon="6.67771">
        <ele>2384.12</ele>
        <time>2018-08-19T12:40:43Z</time>
      </trkpt>
      <trkpt lat="44.792" lon="6.67798">
        <ele>2383.55</ele>
        <time>2018-08-19T12:42:08Z</time>
      </trkpt>
      <trkpt lat="44.79203" lon="6.67825">
        <ele>2382.23</ele>
        <time>2018-08-19T12:42:21Z</time>
      </trkpt>
      <trkpt lat="44.79204" lon="6.67853">
        <ele>2380.88</ele>
        <time>2018-08-19T12:42:35Z</time>
      </trkpt>
      <trkpt lat="44.79201" lon="6.6788">
        <ele>2381.83</ele>
        <time>2018-08-19T12:42:49Z</time>
      </trkpt>
      <trkpt lat="44.79205" lon="6.67905">
        <ele>2380.64</ele>
        <time>2018-08-19T12:43:03Z</time>
      </trkpt>
      <trkpt lat="44.79208" lon="6.67931">
        <ele>2378.43</ele>
        <time>2018-08-19T12:43:27Z</time>
      </trkpt>
      <trkpt lat="44.79213" lon="6.67955">
        <ele>2377.31</ele>
        <time>2018-08-19T12:43:42Z</time>
      </trkpt>
      <trkpt lat="44.79219" lon="6.67979">
        <ele>2375.12</ele>
        <time>2018-08-19T12:43:56Z</time>
      </trkpt>
      <trkpt lat="44.79223" lon="6.68004">
        <ele>2374.41</ele>
        <time>2018-08-19T12:44:10Z</time>
      </trkpt>
      <trkpt lat="44.79232" lon="6.68029">
        <ele>2373.16</ele>
        <time>2018-08-19T12:44:23Z</time>
      </trkpt>
      <trkpt lat="44.79246" lon="6.68048">
        <ele>2372.14</ele>
        <time>2018-08-19T12:44:40Z</time>
      </trkpt>
      <trkpt lat="44.79259" lon="6.68067">
        <ele>2371.88</ele>
        <time>2018-08-19T12:44:55Z</time>
      </trkpt>
      <trkpt lat="44.79267" lon="6.6809">
        <ele>2371.64</ele>
        <time>2018-08-19T12:45:09Z</time>
      </trkpt>
      <trkpt lat="44.79273" lon="6.68115">
        <ele>2372.24</ele>
        <time>2018-08-19T12:45:23Z</time>
      </trkpt>
      <trkpt lat="44.79278" lon="6.68139">
        <ele>2371.06</ele>
        <time>2018-08-19T12:45:36Z</time>
      </trkpt>
      <trkpt lat="44.79285" lon="6.68163">
        <ele>2366.84</ele>
        <time>2018-08-19T12:45:57Z</time>
      </trkpt>
      <trkpt lat="44.79291" lon="6.68188">
        <ele>2364.74</ele>
        <time>2018-08-19T12:46:10Z</time>
      </trkpt>
      <trkpt lat="44.79297" lon="6.68213">
        <ele>2362.47</ele>
        <time>2018-08-19T12:46:25Z</time>
      </trkpt>
      <trkpt lat="44.79294" lon="6.68238">
        <ele>2357.91</ele>
        <time>2018-08-19T12:46:42Z</time>
      </trkpt>
      <trkpt lat="44.79295" lon="6.68264">
        <ele>2354.6</ele>
        <time>2018-08-19T12:46:55Z</time>
      </trkpt>
      <trkpt lat="44.79298" lon="6.68291">
        <ele>2350.74</ele>
        <time>2018-08-19T12:47:12Z</time>
      </trkpt>
      <trkpt lat="44.79304" lon="6.68317">
        <ele>2345.5</ele>
        <time>2018-08-19T12:47:35Z</time>
      </trkpt>
      <trkpt lat="44.79311" lon="6.68342">
        <ele>2342.04</ele>
        <time>2018-08-19T12:47:51Z</time>
      </trkpt>
      <trkpt lat="44.79312" lon="6.68368">
        <ele>2337.81</ele>
        <time>2018-08-19T12:48:11Z</time>
      </trkpt>
      <trkpt lat="44.79312" lon="6.68395">
        <ele>2333.67</ele>
        <time>2018-08-19T12:48:28Z</time>
      </trkpt>
      <trkpt lat="44.79311" lon="6.68421">
        <ele>2331.04</ele>
        <time>2018-08-19T12:48:42Z</time>
      </trkpt>
      <trkpt lat="44.79309" lon="6.68449">
        <ele>2327.51</ele>
        <time>2018-08-19T12:48:57Z</time>
      </trkpt>
      <trkpt lat="44.79314" lon="6.68474">
        <ele>2324.6</ele>
        <time>2018-08-19T12:49:12Z</time>
      </trkpt>
      <trkpt lat="44.79319" lon="6.685">
        <ele>2321.16</ele>
        <time>2018-08-19T12:49:26Z</time>
      </trkpt>
      <trkpt lat="44.7932" lon="6.68528">
        <ele>2319.75</ele>
        <time>2018-08-19T12:49:40Z</time>
      </trkpt>
      <trkpt lat="44.79333" lon="6.68549">
        <ele>2320.68</ele>
        <time>2018-08-19T12:49:56Z</time>
      </trkpt>
      <trkpt lat="44.79342" lon="6.68572">
        <ele>2319.42</ele>
        <time>2018-08-19T12:50:44Z</time>
      </trkpt>
      <trkpt lat="44.7935" lon="6.68595">
        <ele>2319.1</ele>
        <time>2018-08-19T12:50:58Z</time>
      </trkpt>
      <trkpt lat="44.79363" lon="6.68617">
        <ele>2317.83</ele>
        <time>2018-08-19T12:51:17Z</time>
      </trkpt>
      <trkpt lat="44.79381" lon="6.68626">
        <ele>2315.2</ele>
        <time>2018-08-19T12:51:39Z</time>
      </trkpt>
      <trkpt lat="44.79398" lon="6.68642">
        <ele>2314.42</ele>
        <time>2018-08-19T12:51:53Z</time>
      </trkpt>
      <trkpt lat="44.79401" lon="6.68667">
        <ele>2315.41</ele>
        <time>2018-08-19T12:52:08Z</time>
      </trkpt>
      <trkpt lat="44.79406" lon="6.68692">
        <ele>2315.83</ele>
        <time>2018-08-19T12:52:25Z</time>
      </trkpt>
      <trkpt lat="44.79419" lon="6.6871">
        <ele>2313.19</ele>
        <time>2018-08-19T12:52:42Z</time>
      </trkpt>
      <trkpt lat="44.79429" lon="6.68732">
        <ele>2309.51</ele>
        <time>2018-08-19T12:53:30Z</time>
      </trkpt>
      <trkpt lat="44.7944" lon="6.68752">
        <ele>2304.9</ele>
        <time>2018-08-19T12:53:49Z</time>
      </trkpt>
      <trkpt lat="44.79435" lon="6.68777">
        <ele>2300.3</ele>
        <time>2018-08-19T12:54:07Z</time>
      </trkpt>
      <trkpt lat="44.79447" lon="6.68798">
        <ele>2296.02</ele>
        <time>2018-08-19T12:54:27Z</time>
      </trkpt>
      <trkpt lat="44.79459" lon="6.68818">
        <ele>2289.36</ele>
        <time>2018-08-19T12:54:51Z</time>
      </trkpt>
      <trkpt lat="44.79468" lon="6.6884">
        <ele>2284.07</ele>
        <time>2018-08-19T12:55:24Z</time>
      </trkpt>
      <trkpt lat="44.79486" lon="6.68848">
        <ele>2279.42</ele>
        <time>2018-08-19T12:55:37Z</time>
      </trkpt>
      <trkpt lat="44.79498" lon="6.68868">
        <ele>2277.62</ele>
        <time>2018-08-19T12:55:53Z</time>
      </trkpt>
      <trkpt lat="44.79515" lon="6.6888">
        <ele>2273.29</ele>
        <time>2018-08-19T12:56:16Z</time>
      </trkpt>
      <trkpt lat="44.79533" lon="6.68891">
        <ele>2267.63</ele>
        <time>2018-08-19T12:56:35Z</time>
      </trkpt>
      <trkpt lat="44.79519" lon="6.68911">
        <ele>2261.69</ele>
        <time>2018-08-19T12:57:45Z</time>
      </trkpt>
      <trkpt lat="44.79503" lon="6.689">
        <ele>2264.49</ele>
        <time>2018-08-19T12:58:48Z</time>
      </trkpt>
      <trkpt lat="44.79519" lon="6.68913">
        <ele>2261.35</ele>
        <time>2018-08-19T13:00:39Z</time>
      </trkpt>
      <trkpt lat="44.79522" lon="6.68939">
        <ele>2264.66</ele>
        <time>2018-08-19T13:01:43Z</time>
      </trkpt>
      <trkpt lat="44.79515" lon="6.68965">
        <ele>2266.74</ele>
        <time>2018-08-19T13:01:59Z</time>
      </trkpt>
      <trkpt lat="44.79516" lon="6.68992">
        <ele>2269.82</ele>
        <time>2018-08-19T13:02:20Z</time>
      </trkpt>
      <trkpt lat="44.79498" lon="6.69">
        <ele>2268.65</ele>
        <time>2018-08-19T13:02:40Z</time>
      </trkpt>
      <trkpt lat="44.79483" lon="6.69017">
        <ele>2262.62</ele>
        <time>2018-08-19T13:03:01Z</time>
      </trkpt>
      <trkpt lat="44.79473" lon="6.69038">
        <ele>2261.5</ele>
        <time>2018-08-19T13:03:15Z</time>
      </trkpt>
      <trkpt lat="44.79472" lon="6.69064">
        <ele>2262.33</ele>
        <time>2018-08-19T13:03:31Z</time>
      </trkpt>
      <trkpt lat="44.79475" lon="6.69089">
        <ele>2261.79</ele>
        <time>2018-08-19T13:03:45Z</time>
      </trkpt>
      <trkpt lat="44.79469" lon="6.69114">
        <ele>2263.67</ele>
        <time>2018-08-19T13:04:01Z</time>
      </trkpt>
      <trkpt lat="44.79457" lon="6.69135">
        <ele>2263.45</ele>
        <time>2018-08-19T13:04:15Z</time>
      </trkpt>
      <trkpt lat="44.79442" lon="6.69152">
        <ele>2265.86</ele>
        <time>2018-08-19T13:04:34Z</time>
      </trkpt>
      <trkpt lat="44.79426" lon="6.69166">
        <ele>2268.03</ele>
        <time>2018-08-19T13:04:52Z</time>
      </trkpt>
      <trkpt lat="44.79412" lon="6.69185">
        <ele>2268.67</ele>
        <time>2018-08-19T13:06:00Z</time>
      </trkpt>
      <trkpt lat="44.7941" lon="6.69211">
        <ele>2272.88</ele>
        <time>2018-08-19T13:06:20Z</time>
      </trkpt>
      <trkpt lat="44.79417" lon="6.69234">
        <ele>2278.87</ele>
        <time>2018-08-19T13:06:49Z</time>
      </trkpt>
      <trkpt lat="44.79425" lon="6.69258">
        <ele>2280.72</ele>
        <time>2018-08-19T13:07:07Z</time>
      </trkpt>
      <trkpt lat="44.79412" lon="6.69274">
        <ele>2279.75</ele>
        <time>2018-08-19T13:08:05Z</time>
      </trkpt>
      <trkpt lat="44.79408" lon="6.693">
        <ele>2272.31</ele>
        <time>2018-08-19T13:08:29Z</time>
      </trkpt>
      <trkpt lat="44.7939" lon="6.69309">
        <ele>2264.48</ele>
        <time>2018-08-19T13:12:58Z</time>
      </trkpt>
      <trkpt lat="44.79398" lon="6.69333">
        <ele>2252.77</ele>
        <time>2018-08-19T13:13:37Z</time>
      </trkpt>
      <trkpt lat="44.79411" lon="6.69351">
        <ele>2247.67</ele>
        <time>2018-08-19T13:13:56Z</time>
      </trkpt>
      <trkpt lat="44.79423" lon="6.69373">
        <ele>2243.83</ele>
        <time>2018-08-19T13:14:15Z</time>
      </trkpt>
      <trkpt lat="44.7944" lon="6.69384">
        <ele>2240.12</ele>
        <time>2018-08-19T13:14:30Z</time>
      </trkpt>
      <trkpt lat="44.79452" lon="6.69404">
        <ele>2235.42</ele>
        <time>2018-08-19T13:14:55Z</time>
      </trkpt>
      <trkpt lat="44.79461" lon="6.69426">
        <ele>2233.7</ele>
        <time>2018-08-19T13:15:09Z</time>
      </trkpt>
      <trkpt lat="44.79476" lon="6.69442">
        <ele>2228.42</ele>
        <time>2018-08-19T13:15:23Z</time>
      </trkpt>
      <trkpt lat="44.79485" lon="6.69466">
        <ele>2226.2</ele>
        <time>2018-08-19T13:15:35Z</time>
      </trkpt>
      <trkpt lat="44.79499" lon="6.69483">
        <ele>2223.35</ele>
        <time>2018-08-19T13:15:52Z</time>
      </trkpt>
      <trkpt lat="44.79512" lon="6.695">
        <ele>2221.25</ele>
        <time>2018-08-19T13:16:05Z</time>
      </trkpt>
      <trkpt lat="44.79525" lon="6.6952">
        <ele>2220.81</ele>
        <time>2018-08-19T13:16:18Z</time>
      </trkpt>
      <trkpt lat="44.79534" lon="6.69543">
        <ele>2220.38</ele>
        <time>2018-08-19T13:16:31Z</time>
      </trkpt>
      <trkpt lat="44.79542" lon="6.69567">
        <ele>2221.12</ele>
        <time>2018-08-19T13:16:42Z</time>
      </trkpt>
      <trkpt lat="44.79556" lon="6.69584">
        <ele>2221.69</ele>
        <time>2018-08-19T13:16:57Z</time>
      </trkpt>
      <trkpt lat="44.79574" lon="6.69593">
        <ele>2222.41</ele>
        <time>2018-08-19T13:17:15Z</time>
      </trkpt>
      <trkpt lat="44.7959" lon="6.69608">
        <ele>2220.66</ele>
        <time>2018-08-19T13:17:41Z</time>
      </trkpt>
      <trkpt lat="44.79606" lon="6.6962">
        <ele>2219.79</ele>
        <time>2018-08-19T13:17:55Z</time>
      </trkpt>
      <trkpt lat="44.79624" lon="6.69629">
        <ele>2217.72</ele>
        <time>2018-08-19T13:18:17Z</time>
      </trkpt>
      <trkpt lat="44.79642" lon="6.69632">
        <ele>2213.81</ele>
        <time>2018-08-19T13:19:19Z</time>
      </trkpt>
      <trkpt lat="44.79661" lon="6.69636">
        <ele>2207.36</ele>
        <time>2018-08-19T13:19:36Z</time>
      </trkpt>
      <trkpt lat="44.79679" lon="6.69635">
        <ele>2203.29</ele>
        <time>2018-08-19T13:19:49Z</time>
      </trkpt>
      <trkpt lat="44.79696" lon="6.69645">
        <ele>2200.8</ele>
        <time>2018-08-19T13:20:02Z</time>
      </trkpt>
      <trkpt lat="44.79714" lon="6.69653">
        <ele>2198.11</ele>
        <time>2018-08-19T13:20:15Z</time>
      </trkpt>
      <trkpt lat="44.79733" lon="6.69659">
        <ele>2195.64</ele>
        <time>2018-08-19T13:20:28Z</time>
      </trkpt>
      <trkpt lat="44.79749" lon="6.69671">
        <ele>2193.61</ele>
        <time>2018-08-19T13:20:47Z</time>
      </trkpt>
      <trkpt lat="44.79765" lon="6.69685">
        <ele>2192.51</ele>
        <time>2018-08-19T13:21:00Z</time>
      </trkpt>
      <trkpt lat="44.79779" lon="6.69703">
        <ele>2191.06</ele>
        <time>2018-08-19T13:21:10Z</time>
      </trkpt>
      <trkpt lat="44.79781" lon="6.6973">
        <ele>2189.07</ele>
        <time>2018-08-19T13:21:28Z</time>
      </trkpt>
      <trkpt lat="44.79776" lon="6.69757">
        <ele>2187.92</ele>
        <time>2018-08-19T13:21:41Z</time>
      </trkpt>
      <trkpt lat="44.79785" lon="6.6978">
        <ele>2182.56</ele>
        <time>2018-08-19T13:22:02Z</time>
      </trkpt>
      <trkpt lat="44.79802" lon="6.69791">
        <ele>2178.75</ele>
        <time>2018-08-19T13:22:19Z</time>
      </trkpt>
      <trkpt lat="44.79816" lon="6.69809">
        <ele>2174.96</ele>
        <time>2018-08-19T13:23:04Z</time>
      </trkpt>
      <trkpt lat="44.79832" lon="6.69823">
        <ele>2172.32</ele>
        <time>2018-08-19T13:23:19Z</time>
      </trkpt>
      <trkpt lat="44.79845" lon="6.69842">
        <ele>2167.93</ele>
        <time>2018-08-19T13:23:42Z</time>
      </trkpt>
      <trkpt lat="44.79857" lon="6.69862">
        <ele>2160.69</ele>
        <time>2018-08-19T13:24:30Z</time>
      </trkpt>
      <trkpt lat="44.79853" lon="6.69888">
        <ele>2155.55</ele>
        <time>2018-08-19T13:24:48Z</time>
      </trkpt>
      <trkpt lat="44.79852" lon="6.69914">
        <ele>2150.46</ele>
        <time>2018-08-19T13:25:09Z</time>
      </trkpt>
      <trkpt lat="44.79858" lon="6.69939">
        <ele>2147.17</ele>
        <time>2018-08-19T13:26:02Z</time>
      </trkpt>
      <trkpt lat="44.79869" lon="6.69961">
        <ele>2141.87</ele>
        <time>2018-08-19T13:26:24Z</time>
      </trkpt>
      <trkpt lat="44.79876" lon="6.69985">
        <ele>2135.38</ele>
        <time>2018-08-19T13:26:47Z</time>
      </trkpt>
      <trkpt lat="44.79881" lon="6.70011">
        <ele>2129.53</ele>
        <time>2018-08-19T13:27:09Z</time>
      </trkpt>
      <trkpt lat="44.7989" lon="6.70033">
        <ele>2123.85</ele>
        <time>2018-08-19T13:27:37Z</time>
      </trkpt>
      <trkpt lat="44.79895" lon="6.70058">
        <ele>2115.65</ele>
        <time>2018-08-19T13:28:07Z</time>
      </trkpt>
      <trkpt lat="44.79907" lon="6.70079">
        <ele>2113.14</ele>
        <time>2018-08-19T13:28:52Z</time>
      </trkpt>
      <trkpt lat="44.79912" lon="6.70105">
        <ele>2111.18</ele>
        <time>2018-08-19T13:29:07Z</time>
      </trkpt>
      <trkpt lat="44.79919" lon="6.70131">
        <ele>2108.53</ele>
        <time>2018-08-19T13:29:19Z</time>
      </trkpt>
      <trkpt lat="44.79928" lon="6.70154">
        <ele>2104.96</ele>
        <time>2018-08-19T13:29:35Z</time>
      </trkpt>
      <trkpt lat="44.79936" lon="6.70177">
        <ele>2103.05</ele>
        <time>2018-08-19T13:29:54Z</time>
      </trkpt>
      <trkpt lat="44.79953" lon="6.70189">
        <ele>2099.71</ele>
        <time>2018-08-19T13:30:07Z</time>
      </trkpt>
      <trkpt lat="44.79969" lon="6.70202">
        <ele>2096.77</ele>
        <time>2018-08-19T13:30:49Z</time>
      </trkpt>
      <trkpt lat="44.79988" lon="6.702">
        <ele>2094.74</ele>
        <time>2018-08-19T13:31:22Z</time>
      </trkpt>
      <trkpt lat="44.80004" lon="6.70186">
        <ele>2091.83</ele>
        <time>2018-08-19T13:31:38Z</time>
      </trkpt>
      <trkpt lat="44.80016" lon="6.70164">
        <ele>2087.81</ele>
        <time>2018-08-19T13:31:54Z</time>
      </trkpt>
      <trkpt lat="44.80026" lon="6.70143">
        <ele>2084.05</ele>
        <time>2018-08-19T13:32:08Z</time>
      </trkpt>
      <trkpt lat="44.80038" lon="6.70124">
        <ele>2080.87</ele>
        <time>2018-08-19T13:32:22Z</time>
      </trkpt>
      <trkpt lat="44.80057" lon="6.70116">
        <ele>2078.01</ele>
        <time>2018-08-19T13:32:37Z</time>
      </trkpt>
      <trkpt lat="44.80076" lon="6.70112">
        <ele>2078.12</ele>
        <time>2018-08-19T13:32:46Z</time>
      </trkpt>
      <trkpt lat="44.80095" lon="6.70108">
        <ele>2077.67</ele>
        <time>2018-08-19T13:32:59Z</time>
      </trkpt>
      <trkpt lat="44.80114" lon="6.70107">
        <ele>2076.53</ele>
        <time>2018-08-19T13:33:35Z</time>
      </trkpt>
      <trkpt lat="44.80132" lon="6.70103">
        <ele>2075.03</ele>
        <time>2018-08-19T13:33:52Z</time>
      </trkpt>
      <trkpt lat="44.80151" lon="6.70104">
        <ele>2073.43</ele>
        <time>2018-08-19T13:34:18Z</time>
      </trkpt>
      <trkpt lat="44.80171" lon="6.70102">
        <ele>2072.95</ele>
        <time>2018-08-19T13:34:36Z</time>
      </trkpt>
      <trkpt lat="44.80188" lon="6.70094">
        <ele>2071.18</ele>
        <time>2018-08-19T13:34:51Z</time>
      </trkpt>
      <trkpt lat="44.80206" lon="6.70085">
        <ele>2068.96</ele>
        <time>2018-08-19T13:35:10Z</time>
      </trkpt>
      <trkpt lat="44.80227" lon="6.70083">
        <ele>2066.41</ele>
        <time>2018-08-19T13:35:27Z</time>
      </trkpt>
      <trkpt lat="44.80245" lon="6.70086">
        <ele>2064.93</ele>
        <time>2018-08-19T13:35:52Z</time>
      </trkpt>
      <trkpt lat="44.80264" lon="6.70084">
        <ele>2062.8</ele>
        <time>2018-08-19T13:36:13Z</time>
      </trkpt>
      <trkpt lat="44.80284" lon="6.70084">
        <ele>2061.3</ele>
        <time>2018-08-19T13:36:39Z</time>
      </trkpt>
      <trkpt lat="44.80302" lon="6.70091">
        <ele>2059.23</ele>
        <time>2018-08-19T13:36:52Z</time>
      </trkpt>
      <trkpt lat="44.8032" lon="6.70083">
        <ele>2049.3</ele>
        <time>2018-08-19T13:37:31Z</time>
      </trkpt>
      <trkpt lat="44.80335" lon="6.70098">
        <ele>2047.69</ele>
        <time>2018-08-19T13:37:42Z</time>
      </trkpt>
      <trkpt lat="44.80354" lon="6.70105">
        <ele>2047.01</ele>
        <time>2018-08-19T13:38:03Z</time>
      </trkpt>
      <trkpt lat="44.80371" lon="6.70115">
        <ele>2047.38</ele>
        <time>2018-08-19T13:38:16Z</time>
      </trkpt>
      <trkpt lat="44.80387" lon="6.70127">
        <ele>2046.39</ele>
        <time>2018-08-19T13:38:28Z</time>
      </trkpt>
      <trkpt lat="44.80405" lon="6.70139">
        <ele>2046.22</ele>
        <time>2018-08-19T13:38:57Z</time>
      </trkpt>
      <trkpt lat="44.80419" lon="6.70155">
        <ele>2046.02</ele>
        <time>2018-08-19T13:39:17Z</time>
      </trkpt>
      <trkpt lat="44.80436" lon="6.70166">
        <ele>2045.25</ele>
        <time>2018-08-19T13:39:33Z</time>
      </trkpt>
      <trkpt lat="44.80455" lon="6.7017">
        <ele>2044.66</ele>
        <time>2018-08-19T13:39:47Z</time>
      </trkpt>
      <trkpt lat="44.80471" lon="6.70181">
        <ele>2044.54</ele>
        <time>2018-08-19T13:40:01Z</time>
      </trkpt>
      <trkpt lat="44.80489" lon="6.70188">
        <ele>2044.5</ele>
        <time>2018-08-19T13:40:22Z</time>
      </trkpt>
      <trkpt lat="44.80505" lon="6.70202">
        <ele>2043.7</ele>
        <time>2018-08-19T13:40:35Z</time>
      </trkpt>
      <trkpt lat="44.80518" lon="6.7022">
        <ele>2043.74</ele>
        <time>2018-08-19T13:40:48Z</time>
      </trkpt>
      <trkpt lat="44.80536" lon="6.70228">
        <ele>2044.03</ele>
        <time>2018-08-19T13:41:01Z</time>
      </trkpt>
      <trkpt lat="44.80554" lon="6.70233">
        <ele>2043.91</ele>
        <time>2018-08-19T13:41:17Z</time>
      </trkpt>
      <trkpt lat="44.80573" lon="6.70228">
        <ele>2042.69</ele>
        <time>2018-08-19T13:41:37Z</time>
      </trkpt>
      <trkpt lat="44.80592" lon="6.70232">
        <ele>2041.63</ele>
        <time>2018-08-19T13:41:51Z</time>
      </trkpt>
      <trkpt lat="44.8061" lon="6.7024">
        <ele>2038.74</ele>
        <time>2018-08-19T13:42:06Z</time>
      </trkpt>
      <trkpt lat="44.80618" lon="6.70263">
        <ele>2037.2</ele>
        <time>2018-08-19T13:42:17Z</time>
      </trkpt>
      <trkpt lat="44.80627" lon="6.70287">
        <ele>2034.71</ele>
        <time>2018-08-19T13:42:29Z</time>
      </trkpt>
      <trkpt lat="44.80638" lon="6.70306">
        <ele>2032.31</ele>
        <time>2018-08-19T13:42:44Z</time>
      </trkpt>
      <trkpt lat="44.80649" lon="6.70327">
        <ele>2031.85</ele>
        <time>2018-08-19T13:42:56Z</time>
      </trkpt>
      <trkpt lat="44.80661" lon="6.70347">
        <ele>2028.98</ele>
        <time>2018-08-19T13:43:13Z</time>
      </trkpt>
      <trkpt lat="44.8066" lon="6.70373">
        <ele>2026.06</ele>
        <time>2018-08-19T13:43:26Z</time>
      </trkpt>
      <trkpt lat="44.80651" lon="6.70351">
        <ele>2021.12</ele>
        <time>2018-08-19T13:43:58Z</time>
      </trkpt>
      <trkpt lat="44.80649" lon="6.70377">
        <ele>2016.27</ele>
        <time>2018-08-19T13:44:19Z</time>
      </trkpt>
      <trkpt lat="44.80639" lon="6.70399">
        <ele>2013.34</ele>
        <time>2018-08-19T13:44:30Z</time>
      </trkpt>
      <trkpt lat="44.80634" lon="6.70425">
        <ele>2009.87</ele>
        <time>2018-08-19T13:44:44Z</time>
      </trkpt>
      <trkpt lat="44.80631" lon="6.7045">
        <ele>2008.46</ele>
        <time>2018-08-19T13:44:53Z</time>
      </trkpt>
      <trkpt lat="44.80621" lon="6.70471">
        <ele>2005.21</ele>
        <time>2018-08-19T13:45:07Z</time>
      </trkpt>
      <trkpt lat="44.80615" lon="6.70496">
        <ele>2001.05</ele>
        <time>2018-08-19T13:45:23Z</time>
      </trkpt>
      <trkpt lat="44.80605" lon="6.70517">
        <ele>1999.3</ele>
        <time>2018-08-19T13:45:36Z</time>
      </trkpt>
      <trkpt lat="44.80603" lon="6.70542">
        <ele>1995.22</ele>
        <time>2018-08-19T13:45:53Z</time>
      </trkpt>
      <trkpt lat="44.80601" lon="6.70568">
        <ele>1993.27</ele>
        <time>2018-08-19T13:46:06Z</time>
      </trkpt>
      <trkpt lat="44.806" lon="6.70595">
        <ele>1989.91</ele>
        <time>2018-08-19T13:46:21Z</time>
      </trkpt>
      <trkpt lat="44.80609" lon="6.70618">
        <ele>1986.9</ele>
        <time>2018-08-19T13:46:39Z</time>
      </trkpt>
      <trkpt lat="44.80619" lon="6.7064">
        <ele>1982.96</ele>
        <time>2018-08-19T13:46:53Z</time>
      </trkpt>
      <trkpt lat="44.80621" lon="6.70666">
        <ele>1980.34</ele>
        <time>2018-08-19T13:47:05Z</time>
      </trkpt>
      <trkpt lat="44.80602" lon="6.70673">
        <ele>1975.76</ele>
        <time>2018-08-19T13:47:25Z</time>
      </trkpt>
      <trkpt lat="44.80584" lon="6.70671">
        <ele>1973.09</ele>
        <time>2018-08-19T13:47:41Z</time>
      </trkpt>
      <trkpt lat="44.80567" lon="6.70667">
        <ele>1971.22</ele>
        <time>2018-08-19T13:47:55Z</time>
      </trkpt>
      <trkpt lat="44.80548" lon="6.70675">
        <ele>1966.54</ele>
        <time>2018-08-19T13:48:17Z</time>
      </trkpt>
      <trkpt lat="44.80534" lon="6.70695">
        <ele>1964.7</ele>
        <time>2018-08-19T13:48:26Z</time>
      </trkpt>
      <trkpt lat="44.80526" lon="6.70718">
        <ele>1962.46</ele>
        <time>2018-08-19T13:48:36Z</time>
      </trkpt>
    </trkseg>
  </trk>
</gpx>